sensor_id;sensor_type;location;lat;lon;timestamp;P1;durP1;ratioP1;P2;durP2;ratioP2
6163;SDS011;3114;48.362;10.994;2022-09-09T00:01:43;8.00;;;1.65;;
6163;SDS011;3114;48.362;10.994;2022-09-09T00:04:20;2.78;;;1.65;;
6163;SDS011;3114;48.362;10.994;2022-09-09T00:06:55;2.03;;;1.30;;
6163;SDS011;3114;48.362;10.994;2022-09-09T00:09:31;3.22;;;1.23;;
6163;SDS011;3114;48.362;10.994;2022-09-09T00:12:10;1.90;;;1.23;;
6163;SDS011;3114;48.362;10.994;2022-09-09T00:14:41;4.30;;;1.52;;
6163;SDS011;3114;48.362;10.994;2022-09-09T00:17:17;2.67;;;1.45;;
6163;SDS011;3114;48.362;10.994;2022-09-09T00:19:53;1.33;;;1.23;;
6163;SDS011;3114;48.362;10.994;2022-09-09T00:22:28;3.85;;;2.58;;
6163;SDS011;3114;48.362;10.994;2022-09-09T00:24:58;7.22;;;6.63;;
6163;SDS011;3114;48.362;10.994;2022-09-09T00:27:37;6.47;;;5.95;;
6163;SDS011;3114;48.362;10.994;2022-09-09T00:30:15;6.80;;;6.13;;
6163;SDS011;3114;48.362;10.994;2022-09-09T00:32:45;4.78;;;4.43;;
6163;SDS011;3114;48.362;10.994;2022-09-09T00:35:15;5.35;;;5.03;;
6163;SDS011;3114;48.362;10.994;2022-09-09T00:37:44;6.43;;;5.95;;
6163;SDS011;3114;48.362;10.994;2022-09-09T00:40:16;6.65;;;6.10;;
6163;SDS011;3114;48.362;10.994;2022-09-09T00:42:51;8.23;;;7.72;;
6163;SDS011;3114;48.362;10.994;2022-09-09T00:45:41;5.03;;;4.72;;
6163;SDS011;3114;48.362;10.994;2022-09-09T00:48:21;6.97;;;6.57;;
6163;SDS011;3114;48.362;10.994;2022-09-09T00:50:56;7.22;;;6.60;;
6163;SDS011;3114;48.362;10.994;2022-09-09T00:53:31;5.22;;;4.88;;
6163;SDS011;3114;48.362;10.994;2022-09-09T00:56:08;4.95;;;4.55;;
6163;SDS011;3114;48.362;10.994;2022-09-09T00:58:43;4.15;;;3.20;;
6163;SDS011;3114;48.362;10.994;2022-09-09T01:01:17;4.22;;;3.60;;
6163;SDS011;3114;48.362;10.994;2022-09-09T01:03:45;6.68;;;5.82;;
6163;SDS011;3114;48.362;10.994;2022-09-09T01:06:20;7.22;;;6.72;;
6163;SDS011;3114;48.362;10.994;2022-09-09T01:08:56;8.23;;;7.75;;
6163;SDS011;3114;48.362;10.994;2022-09-09T01:11:32;8.27;;;7.80;;
6163;SDS011;3114;48.362;10.994;2022-09-09T01:14:10;8.73;;;8.02;;
6163;SDS011;3114;48.362;10.994;2022-09-09T01:16:45;7.72;;;7.18;;
6163;SDS011;3114;48.362;10.994;2022-09-09T01:19:15;5.60;;;5.20;;
6163;SDS011;3114;48.362;10.994;2022-09-09T01:21:53;6.35;;;6.00;;
6163;SDS011;3114;48.362;10.994;2022-09-09T01:24:29;7.25;;;5.82;;
6163;SDS011;3114;48.362;10.994;2022-09-09T01:27:05;7.88;;;7.28;;
6163;SDS011;3114;48.362;10.994;2022-09-09T01:29:33;6.90;;;6.35;;
6163;SDS011;3114;48.362;10.994;2022-09-09T01:32:00;7.88;;;7.38;;
6163;SDS011;3114;48.362;10.994;2022-09-09T01:34:29;7.40;;;6.90;;
6163;SDS011;3114;48.362;10.994;2022-09-09T01:37:00;6.72;;;6.32;;
6163;SDS011;3114;48.362;10.994;2022-09-09T01:39:30;6.20;;;5.50;;
6163;SDS011;3114;48.362;10.994;2022-09-09T01:41:58;7.20;;;6.80;;
6163;SDS011;3114;48.362;10.994;2022-09-09T01:44:26;6.57;;;5.90;;
6163;SDS011;3114;48.362;10.994;2022-09-09T01:46:54;8.00;;;7.50;;
6163;SDS011;3114;48.362;10.994;2022-09-09T01:49:21;6.13;;;5.30;;
6163;SDS011;3114;48.362;10.994;2022-09-09T01:51:50;4.88;;;3.65;;
6163;SDS011;3114;48.362;10.994;2022-09-09T01:54:20;3.70;;;3.30;;
6163;SDS011;3114;48.362;10.994;2022-09-09T01:56:51;4.30;;;4.00;;
6163;SDS011;3114;48.362;10.994;2022-09-09T01:59:38;5.97;;;4.82;;
6163;SDS011;3114;48.362;10.994;2022-09-09T02:02:13;4.30;;;3.08;;
6163;SDS011;3114;48.362;10.994;2022-09-09T02:04:44;6.15;;;5.25;;
6163;SDS011;3114;48.362;10.994;2022-09-09T02:07:18;5.38;;;4.97;;
6163;SDS011;3114;48.362;10.994;2022-09-09T02:09:56;5.38;;;4.90;;
6163;SDS011;3114;48.362;10.994;2022-09-09T02:12:26;5.70;;;5.10;;
6163;SDS011;3114;48.362;10.994;2022-09-09T02:15:00;6.15;;;5.75;;
6163;SDS011;3114;48.362;10.994;2022-09-09T02:17:32;2.65;;;1.70;;
6163;SDS011;3114;48.362;10.994;2022-09-09T02:20:03;1.83;;;1.20;;
6163;SDS011;3114;48.362;10.994;2022-09-09T02:22:34;2.10;;;1.25;;
6163;SDS011;3114;48.362;10.994;2022-09-09T02:25:05;2.05;;;1.20;;
6163;SDS011;3114;48.362;10.994;2022-09-09T02:27:35;1.88;;;1.15;;
6163;SDS011;3114;48.362;10.994;2022-09-09T02:30:03;1.92;;;1.30;;
6163;SDS011;3114;48.362;10.994;2022-09-09T02:32:32;2.10;;;1.13;;
6163;SDS011;3114;48.362;10.994;2022-09-09T02:35:03;1.40;;;1.20;;
6163;SDS011;3114;48.362;10.994;2022-09-09T02:37:36;2.97;;;1.23;;
6163;SDS011;3114;48.362;10.994;2022-09-09T02:40:05;1.65;;;1.38;;
6163;SDS011;3114;48.362;10.994;2022-09-09T02:42:38;7.20;;;6.53;;
6163;SDS011;3114;48.362;10.994;2022-09-09T02:45:07;7.00;;;6.60;;
6163;SDS011;3114;48.362;10.994;2022-09-09T02:47:35;7.60;;;6.78;;
6163;SDS011;3114;48.362;10.994;2022-09-09T02:50:08;6.85;;;6.45;;
6163;SDS011;3114;48.362;10.994;2022-09-09T02:52:43;1.35;;;0.90;;
6163;SDS011;3114;48.362;10.994;2022-09-09T02:55:28;2.40;;;0.90;;
6163;SDS011;3114;48.362;10.994;2022-09-09T02:58:04;4.57;;;1.50;;
6163;SDS011;3114;48.362;10.994;2022-09-09T03:00:34;1.67;;;1.25;;
6163;SDS011;3114;48.362;10.994;2022-09-09T03:03:02;2.90;;;1.05;;
6163;SDS011;3114;48.362;10.994;2022-09-09T03:05:29;2.83;;;1.30;;
6163;SDS011;3114;48.362;10.994;2022-09-09T03:07:56;2.83;;;1.10;;
6163;SDS011;3114;48.362;10.994;2022-09-09T03:10:23;2.17;;;1.25;;
6163;SDS011;3114;48.362;10.994;2022-09-09T03:12:50;1.10;;;1.00;;
6163;SDS011;3114;48.362;10.994;2022-09-09T03:15:17;3.55;;;1.70;;
6163;SDS011;3114;48.362;10.994;2022-09-09T03:17:46;3.65;;;1.17;;
6163;SDS011;3114;48.362;10.994;2022-09-09T03:20:13;4.10;;;1.25;;
6163;SDS011;3114;48.362;10.994;2022-09-09T03:22:40;3.20;;;1.15;;
6163;SDS011;3114;48.362;10.994;2022-09-09T03:25:07;2.45;;;1.20;;
6163;SDS011;3114;48.362;10.994;2022-09-09T03:27:34;2.25;;;1.73;;
6163;SDS011;3114;48.362;10.994;2022-09-09T03:30:01;3.92;;;1.58;;
6163;SDS011;3114;48.362;10.994;2022-09-09T03:32:28;5.40;;;1.58;;
6163;SDS011;3114;48.362;10.994;2022-09-09T03:34:57;2.72;;;1.27;;
6163;SDS011;3114;48.362;10.994;2022-09-09T03:37:24;3.58;;;1.42;;
6163;SDS011;3114;48.362;10.994;2022-09-09T03:39:51;2.50;;;1.20;;
6163;SDS011;3114;48.362;10.994;2022-09-09T03:42:19;2.40;;;1.17;;
6163;SDS011;3114;48.362;10.994;2022-09-09T03:44:46;1.58;;;1.00;;
6163;SDS011;3114;48.362;10.994;2022-09-09T03:47:14;1.83;;;1.10;;
6163;SDS011;3114;48.362;10.994;2022-09-09T03:49:42;3.13;;;1.35;;
6163;SDS011;3114;48.362;10.994;2022-09-09T03:52:10;3.63;;;1.60;;
6163;SDS011;3114;48.362;10.994;2022-09-09T03:54:37;2.97;;;1.33;;
6163;SDS011;3114;48.362;10.994;2022-09-09T03:57:04;3.70;;;1.30;;
6163;SDS011;3114;48.362;10.994;2022-09-09T03:59:31;3.53;;;1.38;;
6163;SDS011;3114;48.362;10.994;2022-09-09T04:01:58;5.05;;;1.20;;
6163;SDS011;3114;48.362;10.994;2022-09-09T04:04:25;1.58;;;1.30;;
6163;SDS011;3114;48.362;10.994;2022-09-09T04:06:52;3.88;;;1.45;;
6163;SDS011;3114;48.362;10.994;2022-09-09T04:09:20;1.70;;;1.00;;
6163;SDS011;3114;48.362;10.994;2022-09-09T04:11:47;3.25;;;1.20;;
6163;SDS011;3114;48.362;10.994;2022-09-09T04:14:14;3.17;;;1.20;;
6163;SDS011;3114;48.362;10.994;2022-09-09T04:16:41;4.15;;;1.45;;
6163;SDS011;3114;48.362;10.994;2022-09-09T04:19:09;1.15;;;1.00;;
6163;SDS011;3114;48.362;10.994;2022-09-09T04:21:37;3.47;;;1.45;;
6163;SDS011;3114;48.362;10.994;2022-09-09T04:24:05;1.95;;;1.10;;
6163;SDS011;3114;48.362;10.994;2022-09-09T04:26:34;6.03;;;1.20;;
6163;SDS011;3114;48.362;10.994;2022-09-09T04:29:02;2.05;;;1.25;;
6163;SDS011;3114;48.362;10.994;2022-09-09T04:31:29;2.13;;;1.00;;
6163;SDS011;3114;48.362;10.994;2022-09-09T04:33:56;1.98;;;1.33;;
6163;SDS011;3114;48.362;10.994;2022-09-09T04:36:23;3.65;;;1.33;;
6163;SDS011;3114;48.362;10.994;2022-09-09T04:38:50;1.20;;;1.10;;
6163;SDS011;3114;48.362;10.994;2022-09-09T04:41:18;1.77;;;1.15;;
6163;SDS011;3114;48.362;10.994;2022-09-09T04:43:46;1.63;;;1.08;;
6163;SDS011;3114;48.362;10.994;2022-09-09T04:46:12;3.00;;;1.40;;
6163;SDS011;3114;48.362;10.994;2022-09-09T04:48:47;1.40;;;1.17;;
6163;SDS011;3114;48.362;10.994;2022-09-09T04:51:14;4.22;;;1.33;;
6163;SDS011;3114;48.362;10.994;2022-09-09T04:53:41;5.72;;;1.40;;
6163;SDS011;3114;48.362;10.994;2022-09-09T04:56:09;4.15;;;1.45;;
6163;SDS011;3114;48.362;10.994;2022-09-09T04:58:37;3.75;;;1.30;;
6163;SDS011;3114;48.362;10.994;2022-09-09T05:01:06;2.63;;;1.38;;
6163;SDS011;3114;48.362;10.994;2022-09-09T05:03:34;2.63;;;1.55;;
6163;SDS011;3114;48.362;10.994;2022-09-09T05:06:02;3.97;;;1.60;;
6163;SDS011;3114;48.362;10.994;2022-09-09T05:08:30;3.05;;;1.30;;
6163;SDS011;3114;48.362;10.994;2022-09-09T05:10:57;2.22;;;1.50;;
6163;SDS011;3114;48.362;10.994;2022-09-09T05:13:25;3.42;;;1.90;;
6163;SDS011;3114;48.362;10.994;2022-09-09T05:15:52;3.22;;;1.92;;
6163;SDS011;3114;48.362;10.994;2022-09-09T05:18:21;1.85;;;1.60;;
6163;SDS011;3114;48.362;10.994;2022-09-09T05:20:48;3.95;;;1.50;;
6163;SDS011;3114;48.362;10.994;2022-09-09T05:23:16;2.63;;;1.30;;
6163;SDS011;3114;48.362;10.994;2022-09-09T05:25:43;3.05;;;1.30;;
6163;SDS011;3114;48.362;10.994;2022-09-09T05:28:11;1.55;;;1.23;;
6163;SDS011;3114;48.362;10.994;2022-09-09T05:30:38;6.90;;;1.30;;
6163;SDS011;3114;48.362;10.994;2022-09-09T05:33:05;2.90;;;1.30;;
6163;SDS011;3114;48.362;10.994;2022-09-09T05:35:35;5.97;;;1.52;;
6163;SDS011;3114;48.362;10.994;2022-09-09T05:38:03;4.40;;;1.50;;
6163;SDS011;3114;48.362;10.994;2022-09-09T05:40:29;3.97;;;1.50;;
6163;SDS011;3114;48.362;10.994;2022-09-09T05:42:59;3.10;;;1.30;;
6163;SDS011;3114;48.362;10.994;2022-09-09T05:45:27;2.10;;;1.10;;
6163;SDS011;3114;48.362;10.994;2022-09-09T05:47:54;2.53;;;1.20;;
6163;SDS011;3114;48.362;10.994;2022-09-09T05:50:22;5.63;;;1.20;;
6163;SDS011;3114;48.362;10.994;2022-09-09T05:52:50;3.65;;;1.20;;
6163;SDS011;3114;48.362;10.994;2022-09-09T05:55:20;2.63;;;1.38;;
6163;SDS011;3114;48.362;10.994;2022-09-09T05:57:48;3.25;;;1.27;;
6163;SDS011;3114;48.362;10.994;2022-09-09T06:00:17;1.95;;;1.23;;
6163;SDS011;3114;48.362;10.994;2022-09-09T06:02:49;4.30;;;1.40;;
6163;SDS011;3114;48.362;10.994;2022-09-09T06:05:17;3.55;;;1.42;;
6163;SDS011;3114;48.362;10.994;2022-09-09T06:07:45;5.43;;;1.40;;
6163;SDS011;3114;48.362;10.994;2022-09-09T06:10:13;3.28;;;1.42;;
6163;SDS011;3114;48.362;10.994;2022-09-09T06:12:40;4.43;;;1.30;;
6163;SDS011;3114;48.362;10.994;2022-09-09T06:15:08;1.75;;;1.17;;
6163;SDS011;3114;48.362;10.994;2022-09-09T06:17:35;4.40;;;1.10;;
6163;SDS011;3114;48.362;10.994;2022-09-09T06:20:02;1.90;;;1.17;;
6163;SDS011;3114;48.362;10.994;2022-09-09T06:22:30;4.78;;;1.40;;
6163;SDS011;3114;48.362;10.994;2022-09-09T06:24:57;2.15;;;1.27;;
6163;SDS011;3114;48.362;10.994;2022-09-09T06:27:25;3.15;;;1.50;;
6163;SDS011;3114;48.362;10.994;2022-09-09T06:29:53;4.07;;;1.20;;
6163;SDS011;3114;48.362;10.994;2022-09-09T06:32:20;3.50;;;1.30;;
6163;SDS011;3114;48.362;10.994;2022-09-09T06:34:47;3.78;;;1.30;;
6163;SDS011;3114;48.362;10.994;2022-09-09T06:37:14;1.65;;;1.20;;
6163;SDS011;3114;48.362;10.994;2022-09-09T06:39:41;2.33;;;1.30;;
6163;SDS011;3114;48.362;10.994;2022-09-09T06:42:08;4.85;;;1.23;;
6163;SDS011;3114;48.362;10.994;2022-09-09T06:44:36;7.05;;;1.48;;
6163;SDS011;3114;48.362;10.994;2022-09-09T06:47:03;5.20;;;1.48;;
6163;SDS011;3114;48.362;10.994;2022-09-09T06:49:30;5.75;;;1.60;;
6163;SDS011;3114;48.362;10.994;2022-09-09T06:51:58;3.50;;;1.40;;
6163;SDS011;3114;48.362;10.994;2022-09-09T06:54:25;1.83;;;1.20;;
6163;SDS011;3114;48.362;10.994;2022-09-09T06:56:51;4.32;;;1.50;;
6163;SDS011;3114;48.362;10.994;2022-09-09T06:59:18;4.03;;;1.40;;
6163;SDS011;3114;48.362;10.994;2022-09-09T07:01:47;3.30;;;1.40;;
6163;SDS011;3114;48.362;10.994;2022-09-09T07:04:16;8.02;;;1.92;;
6163;SDS011;3114;48.362;10.994;2022-09-09T07:06:43;3.88;;;1.35;;
6163;SDS011;3114;48.362;10.994;2022-09-09T07:09:12;1.85;;;0.95;;
6163;SDS011;3114;48.362;10.994;2022-09-09T07:11:41;4.05;;;1.30;;
6163;SDS011;3114;48.362;10.994;2022-09-09T07:14:09;6.22;;;1.83;;
6163;SDS011;3114;48.362;10.994;2022-09-09T07:16:37;6.22;;;1.77;;
6163;SDS011;3114;48.362;10.994;2022-09-09T07:19:06;5.90;;;1.60;;
6163;SDS011;3114;48.362;10.994;2022-09-09T07:21:32;5.13;;;1.63;;
6163;SDS011;3114;48.362;10.994;2022-09-09T07:23:59;3.25;;;1.42;;
6163;SDS011;3114;48.362;10.994;2022-09-09T07:26:27;5.10;;;1.42;;
6163;SDS011;3114;48.362;10.994;2022-09-09T07:28:55;5.10;;;1.40;;
6163;SDS011;3114;48.362;10.994;2022-09-09T07:31:26;4.53;;;1.55;;
6163;SDS011;3114;48.362;10.994;2022-09-09T07:33:55;5.38;;;1.20;;
6163;SDS011;3114;48.362;10.994;2022-09-09T07:36:24;2.63;;;1.10;;
6163;SDS011;3114;48.362;10.994;2022-09-09T07:38:53;5.50;;;1.60;;
6163;SDS011;3114;48.362;10.994;2022-09-09T07:41:22;3.28;;;1.35;;
6163;SDS011;3114;48.362;10.994;2022-09-09T07:43:51;5.35;;;1.55;;
6163;SDS011;3114;48.362;10.994;2022-09-09T07:46:19;4.63;;;1.25;;
6163;SDS011;3114;48.362;10.994;2022-09-09T07:48:47;4.60;;;1.67;;
6163;SDS011;3114;48.362;10.994;2022-09-09T07:51:18;3.95;;;1.80;;
6163;SDS011;3114;48.362;10.994;2022-09-09T07:53:50;6.65;;;1.50;;
6163;SDS011;3114;48.362;10.994;2022-09-09T07:56:18;2.33;;;1.45;;
6163;SDS011;3114;48.362;10.994;2022-09-09T07:58:48;2.30;;;1.35;;
6163;SDS011;3114;48.362;10.994;2022-09-09T08:01:17;2.13;;;1.40;;
6163;SDS011;3114;48.362;10.994;2022-09-09T08:03:46;4.72;;;1.30;;
6163;SDS011;3114;48.362;10.994;2022-09-09T08:06:13;4.03;;;1.42;;
6163;SDS011;3114;48.362;10.994;2022-09-09T08:08:40;2.58;;;1.45;;
6163;SDS011;3114;48.362;10.994;2022-09-09T08:11:10;3.97;;;1.52;;
6163;SDS011;3114;48.362;10.994;2022-09-09T08:13:38;1.85;;;1.10;;
6163;SDS011;3114;48.362;10.994;2022-09-09T08:16:06;2.25;;;1.20;;
6163;SDS011;3114;48.362;10.994;2022-09-09T08:18:35;3.92;;;1.40;;
6163;SDS011;3114;48.362;10.994;2022-09-09T08:21:06;4.07;;;1.27;;
6163;SDS011;3114;48.362;10.994;2022-09-09T08:23:36;2.20;;;1.27;;
6163;SDS011;3114;48.362;10.994;2022-09-09T08:26:05;2.20;;;1.08;;
6163;SDS011;3114;48.362;10.994;2022-09-09T08:28:35;1.92;;;0.98;;
6163;SDS011;3114;48.362;10.994;2022-09-09T08:31:09;2.83;;;1.17;;
6163;SDS011;3114;48.362;10.994;2022-09-09T08:33:38;1.08;;;0.93;;
6163;SDS011;3114;48.362;10.994;2022-09-09T08:36:06;1.35;;;1.00;;
6163;SDS011;3114;48.362;10.994;2022-09-09T08:38:36;1.92;;;1.27;;
6163;SDS011;3114;48.362;10.994;2022-09-09T08:41:07;4.05;;;1.23;;
6163;SDS011;3114;48.362;10.994;2022-09-09T08:43:50;2.38;;;0.90;;
6163;SDS011;3114;48.362;10.994;2022-09-09T08:46:25;3.97;;;1.23;;
6163;SDS011;3114;48.362;10.994;2022-09-09T08:48:56;2.42;;;1.30;;
6163;SDS011;3114;48.362;10.994;2022-09-09T08:51:27;2.97;;;1.10;;
6163;SDS011;3114;48.362;10.994;2022-09-09T08:54:00;2.67;;;1.00;;
6163;SDS011;3114;48.362;10.994;2022-09-09T08:56:31;3.63;;;1.45;;
6163;SDS011;3114;48.362;10.994;2022-09-09T08:59:00;3.22;;;1.00;;
6163;SDS011;3114;48.362;10.994;2022-09-09T09:01:36;1.13;;;1.00;;
6163;SDS011;3114;48.362;10.994;2022-09-09T09:04:13;1.23;;;1.00;;
6163;SDS011;3114;48.362;10.994;2022-09-09T09:06:55;4.57;;;1.10;;
6163;SDS011;3114;48.362;10.994;2022-09-09T09:09:31;2.13;;;1.20;;
6163;SDS011;3114;48.362;10.994;2022-09-09T09:12:08;2.67;;;1.15;;
6163;SDS011;3114;48.362;10.994;2022-09-09T09:14:43;1.65;;;1.10;;
6163;SDS011;3114;48.362;10.994;2022-09-09T09:17:14;1.40;;;1.30;;
6163;SDS011;3114;48.362;10.994;2022-09-09T09:19:44;3.42;;;1.50;;
6163;SDS011;3114;48.362;10.994;2022-09-09T09:22:14;1.52;;;1.10;;
6163;SDS011;3114;48.362;10.994;2022-09-09T09:24:47;2.88;;;1.20;;
6163;SDS011;3114;48.362;10.994;2022-09-09T09:27:21;3.35;;;1.08;;
6163;SDS011;3114;48.362;10.994;2022-09-09T09:29:59;2.75;;;1.30;;
6163;SDS011;3114;48.362;10.994;2022-09-09T09:32:28;1.08;;;0.98;;
6163;SDS011;3114;48.362;10.994;2022-09-09T09:34:59;4.78;;;1.30;;
6163;SDS011;3114;48.362;10.994;2022-09-09T09:37:30;1.25;;;1.10;;
6163;SDS011;3114;48.362;10.994;2022-09-09T09:40:07;2.97;;;1.90;;
6163;SDS011;3114;48.362;10.994;2022-09-09T09:42:35;1.83;;;1.13;;
6163;SDS011;3114;48.362;10.994;2022-09-09T09:45:12;1.10;;;1.00;;
6163;SDS011;3114;48.362;10.994;2022-09-09T09:47:43;1.20;;;1.00;;
6163;SDS011;3114;48.362;10.994;2022-09-09T09:50:16;2.65;;;1.25;;
6163;SDS011;3114;48.362;10.994;2022-09-09T09:52:51;1.10;;;1.10;;
6163;SDS011;3114;48.362;10.994;2022-09-09T09:55:21;2.50;;;0.98;;
6163;SDS011;3114;48.362;10.994;2022-09-09T09:57:49;2.20;;;1.02;;
6163;SDS011;3114;48.362;10.994;2022-09-09T10:00:19;1.80;;;1.10;;
6163;SDS011;3114;48.362;10.994;2022-09-09T10:02:47;3.13;;;1.08;;
6163;SDS011;3114;48.362;10.994;2022-09-09T10:05:18;2.95;;;0.80;;
6163;SDS011;3114;48.362;10.994;2022-09-09T10:07:46;3.17;;;0.80;;
6163;SDS011;3114;48.362;10.994;2022-09-09T10:10:27;1.90;;;0.82;;
6163;SDS011;3114;48.362;10.994;2022-09-09T10:13:05;3.65;;;0.95;;
6163;SDS011;3114;48.362;10.994;2022-09-09T10:15:41;2.03;;;1.02;;
6163;SDS011;3114;48.362;10.994;2022-09-09T10:18:19;2.42;;;1.60;;
6163;SDS011;3114;48.362;10.994;2022-09-09T10:20:58;3.20;;;1.30;;
6163;SDS011;3114;48.362;10.994;2022-09-09T10:23:41;1.02;;;0.80;;
6163;SDS011;3114;48.362;10.994;2022-09-09T10:26:20;2.50;;;0.95;;
6163;SDS011;3114;48.362;10.994;2022-09-09T10:31:55;3.65;;;0.90;;
6163;SDS011;3114;48.362;10.994;2022-09-09T10:34:34;5.57;;;0.90;;
6163;SDS011;3114;48.362;10.994;2022-09-09T10:37:13;1.58;;;0.73;;
6163;SDS011;3114;48.362;10.994;2022-09-09T10:39:47;1.45;;;0.70;;
6163;SDS011;3114;48.362;10.994;2022-09-09T10:42:23;3.25;;;0.90;;
6163;SDS011;3114;48.362;10.994;2022-09-09T10:45:00;2.03;;;1.15;;
6163;SDS011;3114;48.362;10.994;2022-09-09T10:47:50;2.95;;;0.82;;
6163;SDS011;3114;48.362;10.994;2022-09-09T10:50:43;4.30;;;1.20;;
6163;SDS011;3114;48.362;10.994;2022-09-09T10:53:18;2.97;;;0.98;;
6163;SDS011;3114;48.362;10.994;2022-09-09T10:55:51;2.92;;;0.90;;
6163;SDS011;3114;48.362;10.994;2022-09-09T10:58:23;3.03;;;1.08;;
6163;SDS011;3114;48.362;10.994;2022-09-09T11:00:55;3.42;;;1.00;;
6163;SDS011;3114;48.362;10.994;2022-09-09T11:03:29;3.63;;;1.10;;
6163;SDS011;3114;48.362;10.994;2022-09-09T11:05:56;1.75;;;0.88;;
6163;SDS011;3114;48.362;10.994;2022-09-09T11:08:26;3.30;;;1.10;;
6163;SDS011;3114;48.362;10.994;2022-09-09T11:10:58;2.33;;;0.88;;
6163;SDS011;3114;48.362;10.994;2022-09-09T11:13:29;3.50;;;0.90;;
6163;SDS011;3114;48.362;10.994;2022-09-09T11:16:04;2.28;;;1.10;;
6163;SDS011;3114;48.362;10.994;2022-09-09T11:18:49;2.30;;;1.00;;
6163;SDS011;3114;48.362;10.994;2022-09-09T11:21:22;4.28;;;1.00;;
6163;SDS011;3114;48.362;10.994;2022-09-09T11:23:52;2.15;;;0.80;;
6163;SDS011;3114;48.362;10.994;2022-09-09T11:26:27;2.58;;;1.10;;
6163;SDS011;3114;48.362;10.994;2022-09-09T11:29:02;3.65;;;0.90;;
6163;SDS011;3114;48.362;10.994;2022-09-09T11:31:50;3.47;;;1.10;;
6163;SDS011;3114;48.362;10.994;2022-09-09T11:34:31;3.53;;;1.25;;
6163;SDS011;3114;48.362;10.994;2022-09-09T11:37:07;2.22;;;0.90;;
6163;SDS011;3114;48.362;10.994;2022-09-09T11:42:45;2.72;;;0.80;;
6163;SDS011;3114;48.362;10.994;2022-09-09T11:45:21;2.88;;;1.10;;
6163;SDS011;3114;48.362;10.994;2022-09-09T11:47:54;3.33;;;1.10;;
6163;SDS011;3114;48.362;10.994;2022-09-09T11:53:21;2.67;;;0.80;;
6163;SDS011;3114;48.362;10.994;2022-09-09T11:55:59;3.08;;;0.95;;
6163;SDS011;3114;48.362;10.994;2022-09-09T11:58:40;3.63;;;1.65;;
6163;SDS011;3114;48.362;10.994;2022-09-09T12:01:14;3.05;;;1.10;;
6163;SDS011;3114;48.362;10.994;2022-09-09T12:03:43;2.60;;;1.02;;
6163;SDS011;3114;48.362;10.994;2022-09-09T12:06:15;3.67;;;0.98;;
6163;SDS011;3114;48.362;10.994;2022-09-09T12:08:46;3.35;;;1.00;;
6163;SDS011;3114;48.362;10.994;2022-09-09T12:11:23;2.78;;;1.00;;
6163;SDS011;3114;48.362;10.994;2022-09-09T12:13:54;3.78;;;1.33;;
6163;SDS011;3114;48.362;10.994;2022-09-09T12:16:32;11.25;;;10.45;;
6163;SDS011;3114;48.362;10.994;2022-09-09T12:19:04;10.90;;;9.93;;
6163;SDS011;3114;48.362;10.994;2022-09-09T12:21:36;10.38;;;9.57;;
6163;SDS011;3114;48.362;10.994;2022-09-09T12:24:09;11.80;;;10.70;;
6163;SDS011;3114;48.362;10.994;2022-09-09T12:26:38;10.98;;;10.15;;
6163;SDS011;3114;48.362;10.994;2022-09-09T12:29:14;6.63;;;6.10;;
6163;SDS011;3114;48.362;10.994;2022-09-09T12:31:50;6.15;;;3.85;;
6163;SDS011;3114;48.362;10.994;2022-09-09T12:34:25;10.30;;;9.40;;
6163;SDS011;3114;48.362;10.994;2022-09-09T12:37:04;8.30;;;7.70;;
6163;SDS011;3114;48.362;10.994;2022-09-09T12:39:38;9.60;;;8.52;;
6163;SDS011;3114;48.362;10.994;2022-09-09T12:42:15;8.90;;;8.38;;
6163;SDS011;3114;48.362;10.994;2022-09-09T12:44:50;5.40;;;5.05;;
6163;SDS011;3114;48.362;10.994;2022-09-09T12:47:17;6.90;;;6.30;;
6163;SDS011;3114;48.362;10.994;2022-09-09T12:49:46;4.55;;;4.10;;
6163;SDS011;3114;48.362;10.994;2022-09-09T12:52:17;6.72;;;1.42;;
6163;SDS011;3114;48.362;10.994;2022-09-09T12:54:51;2.22;;;0.93;;
6163;SDS011;3114;48.362;10.994;2022-09-09T12:57:19;1.70;;;0.98;;
6163;SDS011;3114;48.362;10.994;2022-09-09T12:59:50;2.42;;;1.10;;
6163;SDS011;3114;48.362;10.994;2022-09-09T13:02:19;2.78;;;0.93;;
6163;SDS011;3114;48.362;10.994;2022-09-09T13:04:48;3.40;;;1.40;;
6163;SDS011;3114;48.362;10.994;2022-09-09T13:07:17;5.78;;;1.48;;
6163;SDS011;3114;48.362;10.994;2022-09-09T13:09:45;3.70;;;1.08;;
6163;SDS011;3114;48.362;10.994;2022-09-09T13:12:14;3.38;;;0.98;;
6163;SDS011;3114;48.362;10.994;2022-09-09T13:14:44;3.13;;;0.90;;
6163;SDS011;3114;48.362;10.994;2022-09-09T13:17:17;4.68;;;1.00;;
6163;SDS011;3114;48.362;10.994;2022-09-09T13:19:46;4.65;;;1.05;;
6163;SDS011;3114;48.362;10.994;2022-09-09T13:22:21;3.50;;;1.20;;
6163;SDS011;3114;48.362;10.994;2022-09-09T13:24:59;2.47;;;0.88;;
6163;SDS011;3114;48.362;10.994;2022-09-09T13:27:32;2.88;;;1.10;;
6163;SDS011;3114;48.362;10.994;2022-09-09T13:32:45;3.50;;;1.48;;
6163;SDS011;3114;48.362;10.994;2022-09-09T13:35:22;2.55;;;0.90;;
6163;SDS011;3114;48.362;10.994;2022-09-09T13:37:51;3.25;;;1.00;;
6163;SDS011;3114;48.362;10.994;2022-09-09T13:40:19;2.35;;;0.82;;
6163;SDS011;3114;48.362;10.994;2022-09-09T13:42:50;4.03;;;0.93;;
6163;SDS011;3114;48.362;10.994;2022-09-09T13:45:19;4.45;;;1.00;;
6163;SDS011;3114;48.362;10.994;2022-09-09T13:47:48;3.00;;;0.98;;
6163;SDS011;3114;48.362;10.994;2022-09-09T13:50:21;2.38;;;1.13;;
6163;SDS011;3114;48.362;10.994;2022-09-09T13:52:49;3.00;;;1.15;;
6163;SDS011;3114;48.362;10.994;2022-09-09T13:55:17;2.53;;;1.10;;
6163;SDS011;3114;48.362;10.994;2022-09-09T13:57:52;2.40;;;1.10;;
6163;SDS011;3114;48.362;10.994;2022-09-09T14:00:20;2.88;;;0.93;;
6163;SDS011;3114;48.362;10.994;2022-09-09T14:02:49;5.43;;;1.13;;
6163;SDS011;3114;48.362;10.994;2022-09-09T14:05:16;3.00;;;1.00;;
6163;SDS011;3114;48.362;10.994;2022-09-09T14:07:44;2.08;;;0.70;;
6163;SDS011;3114;48.362;10.994;2022-09-09T14:10:11;4.10;;;1.27;;
6163;SDS011;3114;48.362;10.994;2022-09-09T14:12:39;4.20;;;1.23;;
6163;SDS011;3114;48.362;10.994;2022-09-09T14:15:07;2.95;;;0.98;;
6163;SDS011;3114;48.362;10.994;2022-09-09T14:17:36;3.88;;;1.05;;
6163;SDS011;3114;48.362;10.994;2022-09-09T14:20:04;3.15;;;0.80;;
6163;SDS011;3114;48.362;10.994;2022-09-09T14:22:34;2.00;;;0.77;;
6163;SDS011;3114;48.362;10.994;2022-09-09T14:25:01;2.88;;;1.10;;
6163;SDS011;3114;48.362;10.994;2022-09-09T14:27:29;2.95;;;1.30;;
6163;SDS011;3114;48.362;10.994;2022-09-09T14:29:57;5.82;;;1.50;;
6163;SDS011;3114;48.362;10.994;2022-09-09T14:32:25;12.70;;;1.60;;
6163;SDS011;3114;48.362;10.994;2022-09-09T14:34:52;3.08;;;0.85;;
6163;SDS011;3114;48.362;10.994;2022-09-09T14:37:22;3.22;;;1.20;;
6163;SDS011;3114;48.362;10.994;2022-09-09T14:39:49;7.53;;;1.10;;
6163;SDS011;3114;48.362;10.994;2022-09-09T14:42:22;2.72;;;1.10;;
6163;SDS011;3114;48.362;10.994;2022-09-09T14:44:49;2.13;;;1.10;;
6163;SDS011;3114;48.362;10.994;2022-09-09T14:47:19;2.30;;;0.90;;
6163;SDS011;3114;48.362;10.994;2022-09-09T14:49:47;2.83;;;0.80;;
6163;SDS011;3114;48.362;10.994;2022-09-09T14:52:14;2.63;;;0.80;;
6163;SDS011;3114;48.362;10.994;2022-09-09T14:54:44;1.85;;;0.88;;
6163;SDS011;3114;48.362;10.994;2022-09-09T14:57:11;2.13;;;0.65;;
6163;SDS011;3114;48.362;10.994;2022-09-09T14:59:38;2.85;;;0.70;;
6163;SDS011;3114;48.362;10.994;2022-09-09T15:02:05;1.83;;;0.77;;
6163;SDS011;3114;48.362;10.994;2022-09-09T15:04:33;2.70;;;0.85;;
6163;SDS011;3114;48.362;10.994;2022-09-09T15:07:00;2.20;;;1.00;;
6163;SDS011;3114;48.362;10.994;2022-09-09T15:09:27;1.92;;;0.82;;
6163;SDS011;3114;48.362;10.994;2022-09-09T15:11:54;2.10;;;1.00;;
6163;SDS011;3114;48.362;10.994;2022-09-09T15:14:21;2.25;;;0.70;;
6163;SDS011;3114;48.362;10.994;2022-09-09T15:16:47;3.28;;;0.95;;
6163;SDS011;3114;48.362;10.994;2022-09-09T15:19:14;2.47;;;1.00;;
6163;SDS011;3114;48.362;10.994;2022-09-09T15:21:43;3.40;;;0.90;;
6163;SDS011;3114;48.362;10.994;2022-09-09T15:24:09;2.95;;;0.90;;
6163;SDS011;3114;48.362;10.994;2022-09-09T15:26:38;2.40;;;1.20;;
6163;SDS011;3114;48.362;10.994;2022-09-09T15:29:05;2.67;;;1.30;;
6163;SDS011;3114;48.362;10.994;2022-09-09T15:31:32;4.32;;;1.25;;
6163;SDS011;3114;48.362;10.994;2022-09-09T15:34:00;2.78;;;1.10;;